City Of Cassville — WDF9487 — position and weather

sailwx.info

Track history (hours):
 
Tides and Currents Weather Stations Pressure Air Temp Water Temp Dewpoint Dewpoint Depression Visibility Wind Speed Wind Dir Waves Ship Positions

City Of Cassville

Owner: Marquette Transportation Co. LLC, Paducah, KY. More information available from US FCC via Universal Licensing System and Coast Guard Vessel Documentation Center.

Last reported at 2017-Dec-25 19:52 UTC. Time now 2018-Jan-20 13:08 UTC.
Position N 32°36' W 091°09'.
Warning: this ship's position is 25 days out of date.

Length 343 m; draft 3 m.

Type: . MMSI: 367505660.

Date/timePositionNaut miles runAvg speedWind from/ knotsBaromVisibWave heightAir tempDewpointWater temp
2017-Dec-25 19:52N 32°36' W 091°09'1 4.0
2017-Dec-25 19:31N 32°35' W 091°08'2 4.1
2017-Dec-25 19:00N 32°34' W 091°06'5 4.1
2017-Dec-25 17:50N 32°29' W 091°07'1 4.3
2017-Dec-25 17:31N 32°28' W 091°06'2 4.4
2017-Dec-25 17:00N 32°27' W 091°04'2 4.2
2017-Dec-25 16:31N 32°26' W 091°02'2 3.9
2017-Dec-25 16:01N 32°25' W 090°60'2 3.9
2017-Dec-25 15:31N 32°23' W 091°00'2 3.8
2017-Dec-25 15:01N 32°21' W 090°59'2 3.2
2017-Dec-25 14:31N 32°21' W 090°57'0 0.1
2017-Dec-25 14:00N 32°21' W 090°57'0 0.4
2017-Dec-25 13:30N 32°21' W 090°57'0 0.6
2017-Dec-25 13:01N 32°21' W 090°57'2 3.8
2017-Dec-25 12:30N 32°20' W 090°55'2 3.6
2017-Dec-25 12:00N 32°19' W 090°54'1 1.8
2017-Dec-25 11:31N 32°18' W 090°55'0 0.0
2017-Dec-25 11:00N 32°18' W 090°55'0 0.0
2017-Dec-25 10:30N 32°18' W 090°55'0 0.0
2017-Dec-25 10:01N 32°18' W 090°55'0 0.0
2017-Dec-25 09:30N 32°18' W 090°55'0 0.0
2017-Dec-25 09:00N 32°18' W 090°55'0 0.0
2017-Dec-25 08:31N 32°18' W 090°55'0 0.0
2017-Dec-25 08:01N 32°18' W 090°55'0 0.0
2017-Dec-25 07:31N 32°18' W 090°55'0 0.0
2017-Dec-25 07:00N 32°18' W 090°55'0 0.0
2017-Dec-25 06:30N 32°18' W 090°55'0 0.0
2017-Dec-25 06:00N 32°18' W 090°55'0 0.0
2017-Dec-25 05:31N 32°18' W 090°55'0 0.0
2017-Dec-25 05:00N 32°18' W 090°55'0 0.0
2017-Dec-25 04:30N 32°18' W 090°55'0 0.0
2017-Dec-25 04:01N 32°18' W 090°55'0 0.0
2017-Dec-25 03:30N 32°18' W 090°55'0 0.0
2017-Dec-25 03:00N 32°18' W 090°55'0 0.0
2017-Dec-25 02:31N 32°18' W 090°55'0 0.0
2017-Dec-25 02:01N 32°18' W 090°55'0 0.0
2017-Dec-25 01:31N 32°18' W 090°55'0 0.0
2017-Dec-25 01:00N 32°18' W 090°55'0 0.0
2017-Dec-25 00:31N 32°18' W 090°55'0 0.0
2017-Dec-25 00:00N 32°18' W 090°55'0 0.0
2017-Dec-24 23:31N 32°18' W 090°55'0 0.4
2017-Dec-24 23:01N 32°18' W 090°55'2 4.1
2017-Dec-24 22:30N 32°17' W 090°57'2 3.6
2017-Dec-24 22:01N 32°15' W 090°59'1 2.2
2017-Dec-24 21:30N 32°14' W 090°59'1 2.4
2017-Dec-24 21:00N 32°13' W 090°59'2 3.9
2017-Dec-24 20:30N 32°11' W 090°60'2 3.8
2017-Dec-24 20:00N 32°09' W 091°00'2 3.5
2017-Dec-24 19:30N 32°08' W 091°01'2 3.7
2017-Dec-24 18:59N 32°07' W 091°03'2 4.3
2017-Dec-24 18:30N 32°08' W 091°05'2 3.1
2017-Dec-24 18:00N 32°07' W 091°06'5 1.3
2017-Dec-24 14:22N 32°03' W 091°04'  
2017-Dec-21 12:58N 31°55' W 091°12'7 9.6
2017-Dec-21 12:13N 31°60' W 091°06'211.0
2017-Dec-21 12:01N 32°01' W 091°04'5 9.9
2017-Dec-21 11:29N 32°06' W 091°06'3 0.4
2017-Dec-21 05:31N 32°08' W 091°03'0 7.8
2017-Dec-21 05:29N 32°07' W 091°03'3 5.7
2017-Dec-21 05:01N 32°09' W 091°00'4 8.7
2017-Dec-21 04:30N 32°13' W 090°59'5 9.8
2017-Dec-21 04:01N 32°17' W 090°56'4 7.4
2017-Dec-21 03:30N 32°21' W 090°55'4 8.7
2017-Dec-21 03:01N 32°22' W 091°00'4 8.1
2017-Dec-21 02:31N 32°26' W 091°01'510.8
2017-Dec-21 02:00N 32°28' W 091°07'510.9
2017-Dec-21 01:30N 32°34' W 091°06'510.9
2017-Dec-21 01:00N 32°39' W 091°09'  
Track history (hours):
 
Tides and Currents Weather Stations Pressure Air Temp Water Temp Dewpoint Dewpoint Depression Visibility Wind Speed Wind Dir Waves Ship Positions

City Of Cassville

Owner: Marquette Transportation Co. LLC, Paducah, KY. More information available from US FCC via Universal Licensing System and Coast Guard Vessel Documentation Center.

Last reported at 2017-Dec-25 19:52 UTC. Time now 2018-Jan-20 13:08 UTC.
Position N 32°36' W 091°09'.
Warning: this ship's position is 25 days out of date.

Length 343 m; draft 3 m.

Type: . MMSI: 367505660.

Date/timePositionNaut miles runAvg speedWind from/ knotsBaromVisibWave heightAir tempDewpointWater temp
2017-Dec-25 19:52N 32°36' W 091°09'1 4.0
2017-Dec-25 19:31N 32°35' W 091°08'2 4.1
2017-Dec-25 19:00N 32°34' W 091°06'5 4.1
2017-Dec-25 17:50N 32°29' W 091°07'1 4.3
2017-Dec-25 17:31N 32°28' W 091°06'2 4.4
2017-Dec-25 17:00N 32°27' W 091°04'2 4.2
2017-Dec-25 16:31N 32°26' W 091°02'2 3.9
2017-Dec-25 16:01N 32°25' W 090°60'2 3.9
2017-Dec-25 15:31N 32°23' W 091°00'2 3.8
2017-Dec-25 15:01N 32°21' W 090°59'2 3.2
2017-Dec-25 14:31N 32°21' W 090°57'0 0.1
2017-Dec-25 14:00N 32°21' W 090°57'0 0.4
2017-Dec-25 13:30N 32°21' W 090°57'0 0.6
2017-Dec-25 13:01N 32°21' W 090°57'2 3.8
2017-Dec-25 12:30N 32°20' W 090°55'2 3.6
2017-Dec-25 12:00N 32°19' W 090°54'1 1.8
2017-Dec-25 11:31N 32°18' W 090°55'0 0.0
2017-Dec-25 11:00N 32°18' W 090°55'0 0.0
2017-Dec-25 10:30N 32°18' W 090°55'0 0.0
2017-Dec-25 10:01N 32°18' W 090°55'0 0.0
2017-Dec-25 09:30N 32°18' W 090°55'0 0.0
2017-Dec-25 09:00N 32°18' W 090°55'0 0.0
2017-Dec-25 08:31N 32°18' W 090°55'0 0.0
2017-Dec-25 08:01N 32°18' W 090°55'0 0.0
2017-Dec-25 07:31N 32°18' W 090°55'0 0.0
2017-Dec-25 07:00N 32°18' W 090°55'0 0.0
2017-Dec-25 06:30N 32°18' W 090°55'0 0.0
2017-Dec-25 06:00N 32°18' W 090°55'0 0.0
2017-Dec-25 05:31N 32°18' W 090°55'0 0.0
2017-Dec-25 05:00N 32°18' W 090°55'0 0.0
2017-Dec-25 04:30N 32°18' W 090°55'0 0.0
2017-Dec-25 04:01N 32°18' W 090°55'0 0.0
2017-Dec-25 03:30N 32°18' W 090°55'0 0.0
2017-Dec-25 03:00N 32°18' W 090°55'0 0.0
2017-Dec-25 02:31N 32°18' W 090°55'0 0.0
2017-Dec-25 02:01N 32°18' W 090°55'0 0.0
2017-Dec-25 01:31N 32°18' W 090°55'0 0.0
2017-Dec-25 01:00N 32°18' W 090°55'0 0.0
2017-Dec-25 00:31N 32°18' W 090°55'0 0.0
2017-Dec-25 00:00N 32°18' W 090°55'0 0.0
2017-Dec-24 23:31N 32°18' W 090°55'0 0.4
2017-Dec-24 23:01N 32°18' W 090°55'2 4.1
2017-Dec-24 22:30N 32°17' W 090°57'2 3.6
2017-Dec-24 22:01N 32°15' W 090°59'1 2.2
2017-Dec-24 21:30N 32°14' W 090°59'1 2.4
2017-Dec-24 21:00N 32°13' W 090°59'2 3.9
2017-Dec-24 20:30N 32°11' W 090°60'2 3.8
2017-Dec-24 20:00N 32°09' W 091°00'2 3.5
2017-Dec-24 19:30N 32°08' W 091°01'2 3.7
2017-Dec-24 18:59N 32°07' W 091°03'2 4.3
2017-Dec-24 18:30N 32°08' W 091°05'2 3.1
2017-Dec-24 18:00N 32°07' W 091°06'5 1.3
2017-Dec-24 14:22N 32°03' W 091°04'  
2017-Dec-21 12:58N 31°55' W 091°12'7 9.6
2017-Dec-21 12:13N 31°60' W 091°06'211.0
2017-Dec-21 12:01N 32°01' W 091°04'5 9.9
2017-Dec-21 11:29N 32°06' W 091°06'3 0.4
2017-Dec-21 05:31N 32°08' W 091°03'0 7.8
2017-Dec-21 05:29N 32°07' W 091°03'3 5.7
2017-Dec-21 05:01N 32°09' W 091°00'4 8.7
2017-Dec-21 04:30N 32°13' W 090°59'5 9.8
2017-Dec-21 04:01N 32°17' W 090°56'4 7.4
2017-Dec-21 03:30N 32°21' W 090°55'4 8.7
2017-Dec-21 03:01N 32°22' W 091°00'4 8.1
2017-Dec-21 02:31N 32°26' W 091°01'510.8
2017-Dec-21 02:00N 32°28' W 091°07'510.9
2017-Dec-21 01:30N 32°34' W 091°06'510.9
2017-Dec-21 01:00N 32°39' W 091°09'  

Dump ship's entire track history